Leland, IL (60531)

9:08 PM CDT on August 21, 2014 (GMT -0500)
Weather at Chuck and Pats House | Change Station
CLOSE
Current Station
Personal Weather Station
Location: Serena, IL
Elevation: 633 ft
Nearby Weather Stations

Elev 633 ft 41.51 °N, 88.74 °W | Updated 6 seconds ago

Scattered Clouds
Scattered Clouds
76.8 °F
Feels Like 77 °F
N
0.6
Wind Variable Wind from SE
Gusts 1.2 mph

Today
High -- | Low -- °F
--% Chance of Precip.
Yesterday
High -- | Low -- °F
Precip. -- in
6:09 AM 7:45 PM
Waning Crescent, 11% visible
Pressure 29.91 in
Visibility 8.0 miles
Clouds Scattered Clouds 12000 ft
Heat Index 77 °F
Dew Point 75 °F
Humidity 94%
Rainfall 0.02 in
Snow Depth Not available.
UV 0 out of 12
Pollen 6.30 out of 12
Air Quality Not available.
Flu Activity Not available.
METAR KARR 220152Z AUTO 12005KT 8SM SCT120 24/22 A2992 RMK AO2 SLP127 T02440222

More Conditions Fewer Conditions

Pressure 29.91 in
Visibility 8.0 miles
Clouds Scattered Clouds 12000 ft
Heat Index 77 °F
Dew Point 75 °F
Humidity 94%
Rainfall 0.02 in
Snow Depth Not available.
UV 0 out of 12
Pollen 6.30 out of 12
Air Quality Not available.
Flu Activity Not available.
METAR KARR 220152Z AUTO 12005KT 8SM SCT120 24/22 A2992 RMK AO2 SLP127 T02440222

More Conditions Fewer Conditions

10-Day Weather Forecast

Almanac

Astronomy

Aug. 21, 2014 Rise Set
Actual Time 6:09 AM CDT 7:45 PM CDT
Civil Twilight 5:40 AM CDT 8:15 PM CDT
Nautical Twilight 5:05 AM CDT 8:50 PM CDT
Astronomical Twilight 4:27 AM CDT 9:28 PM CDT
Moon 2:38 AM CDT (8/21) 5:15 PM CDT (8/21)
Length of Visible Light 14h 34m
Length of Day
13h 35m
Tomorrow will be 2m 34s shorter.
Waning Crescent, 11% of the Moon is Illuminated
Today
Waning Crescent
Aug 25
New
Sep 2
First Quarter
Sep 8
Full
Sep 15
Last Quarter

Today's Extremes

State Highs State Lows

Community

WunderPhotos

Upload Photos

1,746,107 photos uploaded!

WunderBlogs® & News

Nearby

Snow Depth

Station Depth Elevation
No new snow has been reported.

Earthquake Activity

City Distance Mag. Time & Date
No recent earthquake activity has been reported nearby.
Minimum magnitude displayed is 2.5.

Coastal Water Temperatures

Place Temperature
No Stations Reporting

Nearby Weather Stations